createdAt,value
2022-11-15T00:14:57.976Z,14.68
2022-11-15T00:22:18.196Z,13.30
2022-11-15T00:29:44.164Z,14.13
2022-11-15T00:37:04.100Z,12.77
2022-11-15T00:44:24.329Z,14.68
2022-11-15T00:51:44.611Z,14.13
2022-11-15T00:59:04.759Z,15.03
2022-11-15T01:06:24.960Z,12.55
2022-11-15T01:13:45.157Z,14.73
2022-11-15T01:21:07.537Z,14.65
2022-11-15T01:28:31.670Z,13.00
2022-11-15T01:35:51.603Z,13.80
2022-11-15T01:43:25.866Z,13.03
2022-11-15T01:50:45.843Z,13.20
2022-11-15T01:58:06.230Z,13.70
2022-11-15T02:05:26.580Z,12.32
2022-11-15T02:12:46.906Z,13.27
2022-11-15T02:20:21.193Z,14.60
2022-11-15T02:27:56.788Z,13.88
2022-11-15T02:35:28.848Z,14.68
2022-11-15T02:43:11.568Z,13.20
2022-11-15T02:50:32.741Z,11.70
2022-11-15T03:05:36.608Z,13.68
2022-11-15T03:12:58.776Z,13.07
2022-11-15T03:20:19.318Z,14.93
2022-11-15T03:35:06.596Z,14.20
2022-11-15T03:42:30.454Z,11.55
2022-11-15T03:49:53.346Z,13.30
2022-11-15T03:57:13.590Z,12.65
2022-11-15T04:04:33.707Z,14.77
2022-11-15T04:11:53.965Z,12.63
2022-11-15T04:19:32.899Z,12.57
2022-11-15T04:26:53.098Z,14.35
2022-11-15T04:34:13.317Z,14.80
2022-11-15T04:41:33.494Z,13.03
2022-11-15T04:48:58.237Z,13.90
2022-11-15T04:56:19.797Z,15.82
2022-11-15T05:03:58.501Z,13.00
2022-11-15T05:11:18.950Z,13.55
2022-11-15T05:18:41.613Z,14.27
2022-11-15T05:26:07.877Z,14.30
2022-11-15T05:33:29.977Z,12.70
2022-11-15T05:40:50.465Z,14.32
2022-11-15T05:48:10.768Z,13.95
2022-11-15T05:55:31.010Z,13.55
2022-11-15T06:02:51.294Z,14.48
2022-11-15T06:10:11.685Z,15.25
2022-11-15T06:17:31.815Z,10.93
2022-11-15T06:24:51.963Z,14.73
2022-11-15T06:32:12.281Z,11.13
2022-11-15T06:39:32.445Z,11.90
2022-11-15T06:46:52.734Z,14.52
2022-11-15T06:54:13.108Z,14.30
2022-11-15T07:01:33.485Z,14.63
2022-11-15T07:08:53.750Z,14.80
2022-11-15T07:16:13.977Z,16.33
2022-11-15T07:23:34.516Z,11.10
2022-11-15T07:30:55.046Z,14.55
2022-11-15T07:38:21.219Z,15.48
2022-11-15T07:45:42.656Z,15.32
2022-11-15T07:53:03.084Z,15.48
2022-11-15T08:00:23.429Z,15.82
2022-11-15T08:07:43.717Z,13.88
2022-11-15T08:15:04.344Z,14.07
2022-11-15T08:22:24.145Z,16.85
2022-11-15T08:29:44.909Z,14.23
2022-11-15T08:37:05.108Z,12.65
2022-11-15T08:44:25.379Z,14.95
2022-11-15T08:51:45.566Z,13.85
2022-11-15T08:59:05.814Z,13.52
2022-11-15T09:06:26.022Z,14.35
2022-11-15T09:13:46.512Z,13.30
2022-11-15T09:21:06.827Z,12.50
2022-11-15T09:28:27.138Z,15.18
2022-11-15T09:35:47.342Z,12.73
2022-11-15T09:43:19.646Z,11.97
2022-11-15T09:50:54.291Z,11.63
2022-11-15T09:58:01.692Z,13.25
2022-11-15T10:05:03.416Z,14.05
2022-11-15T10:12:05.476Z,13.48
2022-11-15T10:19:13.106Z,11.60
2022-11-15T10:26:16.587Z,11.02
2022-11-15T10:33:18.371Z,10.82
2022-11-15T10:40:22.222Z,10.07
2022-11-15T10:47:37.686Z,10.60
2022-11-15T10:54:47.050Z,9.77
2022-11-15T11:01:48.957Z,10.15
2022-11-15T11:08:58.667Z,10.32
2022-11-15T11:16:20.279Z,9.47
2022-11-15T11:23:31.226Z,9.30
2022-11-15T11:30:56.776Z,9.43
2022-11-15T11:38:26.302Z,9.88
2022-11-15T11:45:36.935Z,9.07
2022-11-15T11:52:43.844Z,9.35
2022-11-15T12:00:02.020Z,8.55
2022-11-15T12:07:23.167Z,9.18
2022-11-15T12:14:43.597Z,9.60
2022-11-15T12:22:04.178Z,9.27
2022-11-15T12:36:40.822Z,9.73
2022-11-15T12:43:46.519Z,9.15
2022-11-15T12:50:56.334Z,9.57
2022-11-15T12:57:57.935Z,8.47
2022-11-15T13:05:20.876Z,8.75
2022-11-15T13:12:28.305Z,8.95
2022-11-15T13:19:29.963Z,8.80
2022-11-15T13:26:31.521Z,7.68
2022-11-15T13:33:36.368Z,8.45
2022-11-15T13:40:38.494Z,7.38
2022-11-15T13:47:40.054Z,7.90
2022-11-15T13:54:45.211Z,8.70
2022-11-15T14:01:47.027Z,8.98
2022-11-15T14:09:02.120Z,9.13
2022-11-15T14:16:17.794Z,8.88
2022-11-15T14:23:20.313Z,9.98
2022-11-15T14:30:21.962Z,8.60
2022-11-15T14:37:24.782Z,8.18
2022-11-15T14:44:26.357Z,8.60
2022-11-15T14:51:27.975Z,8.32
2022-11-15T14:58:29.709Z,9.05
2022-11-15T15:05:39.426Z,9.30
2022-11-15T15:12:41.022Z,9.23
2022-11-15T15:19:42.648Z,9.77
2022-11-15T15:26:44.462Z,9.30
2022-11-15T15:33:46.138Z,9.68
2022-11-15T15:40:50.516Z,9.40
2022-11-15T15:47:53.183Z,8.88
2022-11-15T15:54:54.827Z,9.63
2022-11-15T16:01:56.464Z,10.00
2022-11-15T16:09:14.005Z,9.88
2022-11-15T16:16:21.976Z,9.57
2022-11-15T16:23:25.362Z,9.27
2022-11-15T16:30:27.211Z,9.93
2022-11-15T16:37:28.809Z,11.70
2022-11-15T16:44:30.447Z,11.93
2022-11-15T16:51:32.000Z,14.43
2022-11-15T16:58:33.896Z,12.98
2022-11-15T17:05:35.639Z,15.88
2022-11-15T17:12:37.226Z,14.93
2022-11-15T17:19:38.776Z,18.30
2022-11-15T17:26:41.140Z,16.27
2022-11-15T17:33:42.838Z,16.80
2022-11-15T17:40:44.391Z,16.80
2022-11-15T17:47:46.012Z,18.42
2022-11-15T17:54:47.699Z,15.88
2022-11-15T18:01:49.615Z,17.40
2022-11-15T18:08:52.287Z,15.60
2022-11-15T18:15:55.164Z,16.45
2022-11-15T18:22:56.838Z,15.73
2022-11-15T18:29:58.373Z,16.48
2022-11-15T18:37:00.888Z,16.02
2022-11-15T18:44:03.384Z,16.20
2022-11-15T18:51:08.413Z,15.85
2022-11-15T18:58:09.990Z,15.80
2022-11-15T19:05:11.627Z,16.45
2022-11-15T19:12:13.202Z,16.17
2022-11-15T19:19:16.611Z,14.73
2022-11-15T19:26:18.261Z,16.60
2022-11-15T19:33:26.488Z,14.88
2022-11-15T19:40:29.342Z,17.20
2022-11-15T19:47:30.961Z,17.33
2022-11-15T19:54:32.545Z,17.75
2022-11-15T20:01:39.263Z,15.30
2022-11-15T20:08:41.595Z,15.38
2022-11-15T20:15:43.253Z,15.85
2022-11-15T20:22:44.846Z,16.90
2022-11-15T20:29:46.555Z,14.95
2022-11-15T20:36:48.280Z,14.20
2022-11-15T20:43:49.847Z,14.65
2022-11-15T20:50:51.506Z,15.68
2022-11-15T20:57:53.405Z,13.35
2022-11-15T21:04:55.075Z,13.13
2022-11-15T21:12:12.017Z,14.05
2022-11-15T21:19:13.884Z,13.85
2022-11-15T21:26:15.525Z,14.48
2022-11-15T21:33:17.077Z,14.38
2022-11-15T21:40:18.783Z,14.32
2022-11-15T21:47:20.911Z,15.23
2022-11-15T21:54:22.485Z,15.38
2022-11-15T22:01:43.206Z,15.27
2022-11-15T22:08:45.501Z,16.23
2022-11-15T22:15:47.184Z,12.43
2022-11-15T22:22:48.765Z,12.90
2022-11-15T22:29:50.347Z,13.82
2022-11-15T22:37:19.102Z,15.15
2022-11-15T22:44:13.463Z,13.75
2022-11-15T22:51:15.113Z,12.90
2022-11-15T22:58:16.737Z,15.95
2022-11-15T23:05:18.304Z,15.35
2022-11-15T23:12:38.573Z,13.05
2022-11-15T23:19:40.222Z,13.75
2022-11-15T23:26:43.285Z,14.13
2022-11-15T23:33:59.983Z,13.88
2022-11-15T23:41:01.571Z,14.23
2022-11-15T23:48:03.459Z,13.77
2022-11-15T23:55:05.836Z,14.50
